Time;durP1;ratioP1;P1;durP2;ratioP2;P2;SDS_P1;SDS_P2;PMS_P1;PMS_P2;Temp;Humidity;BMP_temperature;BMP_pressure;BME280_temperature;BME280_humidity;BME280_pressure;Samples;Min_cycle;Max_cycle;Signal;HPM_P1;HPM_P2
2020/12/27 00:00:10;;;;;;;16.07;12.03;;;1.10;89.90;;;0.51;82.04;98129.56;5072314;28;20635;-72
2020/12/27 00:02:41;;;;;;;21.27;13.20;;;1.10;89.30;;;0.45;82.55;98116.91;5070165;28;21233;-72
2020/12/27 00:05:09;;;;;;;24.65;15.75;;;1.00;89.30;;;0.42;82.64;98123.84;5078749;28;20719;-72
2020/12/27 00:07:37;;;;;;;19.20;12.77;;;1.00;89.40;;;0.38;82.85;98117.16;5074652;28;20606;-72
2020/12/27 00:10:06;;;;;;;20.73;12.83;;;1.00;89.30;;;0.33;82.39;98112.16;5072088;28;20606;-73
2020/12/27 00:12:34;;;;;;;18.83;13.68;;;1.00;88.90;;;0.30;82.74;98113.94;5074930;28;20738;-72
2020/12/27 00:15:03;;;;;;;18.63;12.37;;;0.90;90.00;;;0.23;82.23;98107.31;5092374;28;20231;-72
2020/12/27 00:17:30;;;;;;;17.58;11.85;;;0.90;89.00;;;0.24;82.52;98106.41;5084191;28;21067;-72
2020/12/27 00:19:59;;;;;;;18.10;13.27;;;0.90;89.00;;;0.27;82.54;98098.66;5077395;28;20291;-72
2020/12/27 00:22:26;;;;;;;20.00;15.53;;;0.80;89.30;;;0.28;83.08;98095.22;5090149;28;20701;-72
2020/12/27 00:24:54;;;;;;;18.40;13.43;;;0.90;89.60;;;0.24;82.96;98091.91;5076731;28;20674;-72
2020/12/27 00:27:21;;;;;;;15.98;10.68;;;0.90;89.60;;;0.21;82.34;98089.44;5072547;28;20639;-72
2020/12/27 00:29:50;;;;;;;19.85;13.00;;;0.90;89.50;;;0.18;82.47;98078.41;5075117;28;20667;-72
2020/12/27 00:32:19;;;;;;;20.80;12.45;;;0.80;88.90;;;0.19;82.50;98065.53;5082947;28;20226;-72
2020/12/27 00:34:52;;;;;;;19.60;12.70;;;0.80;89.20;;;0.20;82.21;98056.97;5071224;28;20706;-72
2020/12/27 00:37:21;;;;;;;20.42;12.45;;;0.80;89.10;;;0.16;82.82;98044.28;5052959;28;20697;-73
2020/12/27 00:39:50;;;;;;;19.17;12.70;;;0.80;89.40;;;0.13;82.61;98040.06;5076137;28;20212;-71
2020/12/27 00:42:17;;;;;;;20.90;12.95;;;0.80;89.40;;;0.12;82.55;98035.84;5060374;28;20546;-73
2020/12/27 00:44:45;;;;;;;21.17;15.38;;;0.70;89.30;;;0.17;82.64;98025.47;5054045;28;20259;-73
2020/12/27 00:47:13;;;;;;;21.60;14.40;;;0.80;89.60;;;0.13;82.53;98023.88;5053101;28;20645;-72
2020/12/27 00:49:40;;;;;;;19.30;13.90;;;0.80;89.40;;;0.10;83.21;98009.41;5071848;28;20635;-73
2020/12/27 00:52:08;;;;;;;22.50;15.57;;;0.70;89.90;;;0.15;83.11;98006.72;5059057;28;20657;-72
2020/12/27 00:54:36;;;;;;;22.38;14.00;;;0.80;90.00;;;0.15;83.25;98002.44;5059624;28;20233;-74
2020/12/27 00:57:04;;;;;;;20.77;13.73;;;0.80;90.10;;;0.15;83.68;97993.91;5055076;28;20582;-72
2020/12/27 00:59:33;;;;;;;22.48;13.10;;;0.70;90.30;;;0.17;83.07;97984.47;5056337;28;20630;-72
2020/12/27 01:02:02;;;;;;;17.95;11.90;;;0.70;90.10;;;0.15;83.49;97975.97;5057685;28;20201;-72
2020/12/27 01:04:52;;;;;;;17.80;11.40;;;0.80;90.10;;;0.15;83.07;97970.84;5076744;28;20221;-72
2020/12/27 01:07:25;;;;;;;19.57;12.77;;;0.80;89.50;;;0.13;83.37;97975.19;5082240;28;20631;-73
2020/12/27 01:10:11;;;;;;;15.70;11.63;;;0.80;90.10;;;0.10;83.08;97962.44;5053678;28;20643;-73
2020/12/27 01:12:40;;;;;;;20.70;13.33;;;0.80;89.90;;;0.08;82.83;97956.53;5077994;28;20663;-72
2020/12/27 01:15:09;;;;;;;19.50;12.30;;;0.70;89.90;;;0.07;83.02;97945.44;5066115;28;20658;-73
2020/12/27 01:17:55;;;;;;;21.60;12.07;;;0.70;89.30;;;0.04;83.16;97947.25;5079909;28;20639;-73
2020/12/27 01:20:23;;;;;;;18.60;11.63;;;0.70;89.40;;;0.05;83.12;97951.50;5038741;28;20670;-73
2020/12/27 01:22:50;;;;;;;20.00;11.65;;;0.70;90.10;;;0.02;83.20;97938.78;5059276;28;20205;-72
2020/12/27 01:25:25;;;;;;;19.77;11.95;;;0.60;90.00;;;0.00;83.37;97938.00;5065179;28;20201;-72
2020/12/27 01:27:53;;;;;;;18.20;11.60;;;0.70;90.30;;;0.02;83.49;97938.78;5057910;28;20208;-73
2020/12/27 01:30:20;;;;;;;14.67;10.30;;;0.60;90.10;;;0.01;83.37;97939.66;5071106;28;20197;-73
2020/12/27 01:32:57;;;;;;;18.13;10.82;;;0.70;90.10;;;-0.01;83.28;97936.31;5052577;28;20662;-72
2020/12/27 01:35:37;;;;;;;15.40;10.90;;;0.60;90.00;;;-0.04;82.85;97933.84;5038568;28;20312;-73
2020/12/27 01:38:06;;;;;;;18.27;11.57;;;0.60;90.00;;;0.01;83.04;97931.97;5037352;28;20209;-73
2020/12/27 01:40:35;;;;;;;16.57;10.33;;;0.60;90.10;;;-0.03;83.45;97925.28;5053420;28;20696;-73
2020/12/27 01:43:02;;;;;;;16.90;9.63;;;0.60;90.10;;;-0.07;83.12;97916.00;5050460;28;20654;-73
2020/12/27 01:45:31;;;;;;;14.40;10.03;;;0.60;90.00;;;-0.14;82.41;97901.69;5061099;28;20623;-73
2020/12/27 01:48:14;;;;;;;16.23;9.97;;;0.50;89.20;;;-0.16;82.70;97893.22;5069662;28;20638;-73
2020/12/27 01:50:45;;;;;;;14.50;10.40;;;0.50;88.70;;;-0.18;82.98;97886.44;5085551;28;20638;-73
2020/12/27 01:53:23;;;;;;;15.65;11.20;;;0.50;89.70;;;-0.12;83.18;97876.88;5043687;28;20617;-73
2020/12/27 01:55:51;;;;;;;10.93;7.93;;;0.50;89.80;;;-0.11;84.07;97872.59;5042858;28;20628;-72
2020/12/27 01:58:21;;;;;;;14.80;9.35;;;0.50;90.70;;;-0.06;83.75;97869.00;5058908;28;20643;-73
2020/12/27 02:01:01;;;;;;;12.07;9.03;;;0.50;90.40;;;-0.05;83.42;97855.28;5051176;28;20209;-73
2020/12/27 02:03:42;;;;;;;12.02;8.40;;;0.50;90.30;;;-0.07;83.32;97849.38;5059831;28;20670;-73
2020/12/27 02:06:18;;;;;;;16.98;10.70;;;0.50;90.00;;;-0.09;82.57;97837.50;5059043;28;20205;-73
2020/12/27 02:08:51;;;;;;;19.80;11.82;;;0.50;89.80;;;-0.15;83.19;97820.63;5055531;28;20291;-73
2020/12/27 02:11:30;;;;;;;14.50;9.47;;;0.50;90.00;;;-0.20;83.17;97809.66;5059609;28;20197;-73
2020/12/27 02:13:58;;;;;;;20.00;9.60;;;0.50;90.10;;;-0.15;83.11;97804.38;5063964;28;20699;-73
2020/12/27 02:16:30;;;;;;;15.20;8.20;;;0.50;90.00;;;-0.05;82.80;97793.81;5062183;28;20225;-73
2020/12/27 02:19:17;;;;;;;10.98;5.15;;;0.50;90.00;;;0.08;81.84;97784.84;5077734;28;20638;-73
2020/12/27 02:21:49;;;;;;;12.10;5.10;;;0.70;88.70;;;0.21;81.36;97775.84;5043186;28;20205;-73
2020/12/27 02:24:38;;;;;;;8.00;4.88;;;0.80;88.50;;;0.38;80.92;97769.28;5077439;28;20684;-73
2020/12/27 02:27:06;;;;;;;7.15;4.60;;;0.90;87.90;;;0.47;80.15;97767.25;5062263;28;20600;-73
2020/12/27 02:29:36;;;;;;;6.67;4.40;;;1.00;87.20;;;0.49;80.08;97754.38;5051179;28;20198;-73
2020/12/27 02:32:06;;;;;;;7.45;4.18;;;1.10;86.50;;;0.55;79.82;97752.41;5075780;28;20981;-73
2020/12/27 02:34:33;;;;;;;8.40;4.40;;;1.10;85.70;;;0.65;79.71;97748.66;5062300;28;20210;-73
2020/12/27 02:37:01;;;;;;;6.07;4.13;;;1.20;86.20;;;0.71;78.71;97740.75;5084847;28;20661;-72
2020/12/27 02:39:47;;;;;;;6.80;4.50;;;1.30;85.50;;;0.78;79.11;97728.53;5075891;28;20207;-73
2020/12/27 02:42:15;;;;;;;8.40;4.50;;;1.30;84.40;;;0.70;79.05;97725.41;5059507;28;20777;-73
2020/12/27 02:45:09;;;;;;;6.30;4.43;;;1.30;84.40;;;0.65;79.09;97717.88;5060130;28;20668;-73
2020/12/27 02:48:02;;;;;;;7.53;5.00;;;1.30;84.10;;;0.66;78.77;97704.16;5077372;28;20647;-73
2020/12/27 02:50:47;;;;;;;6.63;4.33;;;1.30;84.70;;;0.66;78.95;97701.59;5067449;28;20631;-73
2020/12/27 02:53:16;;;;;;;8.80;5.07;;;1.30;84.10;;;0.63;79.45;97696.59;5076884;28;20635;-73
2020/12/27 02:55:44;;;;;;;6.90;4.50;;;1.30;84.80;;;0.59;78.65;97681.34;5063397;28;20698;-72
2020/12/27 02:58:12;;;;;;;5.55;3.75;;;1.30;84.20;;;0.57;79.31;97686.53;5078933;28;20634;-73
2020/12/27 03:00:43;;;;;;;7.83;5.13;;;1.20;84.30;;;0.58;79.19;97672.81;5066922;28;20284;-73
2020/12/27 03:03:29;;;;;;;7.47;4.90;;;1.30;84.50;;;0.55;78.76;97662.66;5073343;28;20666;-73
2020/12/27 03:06:02;;;;;;;8.20;5.23;;;1.20;84.10;;;0.58;78.73;97649.72;5076836;28;20618;-73
2020/12/27 03:08:30;;;;;;;6.17;4.93;;;1.20;85.10;;;0.61;79.17;97636.78;5060020;28;20665;-73
2020/12/27 03:11:17;;;;;;;6.60;4.60;;;1.30;84.60;;;0.65;79.51;97630.66;5066351;28;20688;-73
2020/12/27 03:13:45;;;;;;;10.43;4.97;;;1.30;84.70;;;0.72;78.48;97628.69;5064729;28;20654;-72
2020/12/27 03:16:12;;;;;;;6.00;4.40;;;1.30;83.90;;;0.65;78.29;97624.72;5073133;28;21214;-73
2020/12/27 03:18:56;;;;;;;6.57;4.53;;;1.30;83.30;;;0.72;78.22;97619.31;5059078;28;20721;-73
2020/12/27 03:21:47;;;;;;;6.47;4.77;;;1.30;83.60;;;0.74;77.96;97614.13;5068607;28;21216;-73
2020/12/27 03:24:42;;;;;;;10.60;4.87;;;1.40;83.00;;;0.74;77.41;97603.84;5069568;28;20647;-74
2020/12/27 03:27:10;;;;;;;6.93;4.20;;;1.30;82.90;;;0.76;77.37;97613.13;5076172;28;20630;-74
2020/12/27 03:29:38;;;;;;;5.70;4.20;;;1.40;82.40;;;0.67;76.34;97602.41;5057727;28;20627;-73
2020/12/27 03:32:06;;;;;;;4.70;3.73;;;1.30;81.60;;;0.65;76.06;97593.94;5056579;28;20763;-73
2020/12/27 03:34:34;;;;;;;6.30;4.27;;;1.30;80.80;;;0.60;76.75;97594.09;5073611;28;20696;-73
2020/12/27 03:37:02;;;;;;;10.53;4.00;;;1.30;80.90;;;0.65;77.24;97604.19;5055595;28;20657;-73
2020/12/27 03:39:55;;;;;;;5.23;3.77;;;1.30;81.50;;;0.75;76.80;97608.06;5049918;28;20647;-71
2020/12/27 03:42:41;;;;;;;8.23;4.30;;;1.30;81.40;;;0.76;76.74;97604.63;5044757;28;20623;-73
2020/12/27 03:45:10;;;;;;;6.53;4.20;;;1.40;81.30;;;0.80;76.58;97604.44;5045583;28;20738;-73
2020/12/27 03:47:56;;;;;;;4.90;3.67;;;1.40;80.70;;;0.85;76.09;97602.53;5058107;28;20670;-73
2020/12/27 03:50:42;;;;;;;4.07;3.47;;;1.40;80.50;;;0.90;75.57;97594.66;5087363;28;20713;-74
2020/12/27 03:53:10;;;;;;;5.27;3.57;;;1.50;80.60;;;0.88;76.24;97581.88;5057030;28;20639;-73
2020/12/27 03:56:03;;;;;;;9.40;4.50;;;1.50;80.60;;;0.82;76.14;97568.47;5068097;28;20651;-73
2020/12/27 03:59:06;;;;;;;8.80;4.50;;;1.40;79.80;;;0.81;75.51;97559.91;4970956;28;20642;-73
2020/12/27 04:01:43;;;;;;;8.90;4.73;;;1.40;79.70;;;0.79;76.19;97540.38;5042568;28;20639;-73
2020/12/27 04:04:10;;;;;;;6.30;3.80;;;1.40;80.20;;;0.69;76.13;97524.50;5082252;28;20728;-72
2020/12/27 04:06:38;;;;;;;5.97;4.00;;;1.40;80.30;;;0.67;76.09;97521.16;5075472;28;20704;-73
2020/12/27 04:09:17;;;;;;;4.77;3.40;;;1.30;80.60;;;0.56;76.77;97502.78;5087459;28;20636;-73
2020/12/27 04:11:45;;;;;;;6.45;4.40;;;1.20;80.60;;;0.38;76.68;97489.03;5053258;28;20627;-73
2020/12/27 04:14:14;;;;;;;5.83;3.77;;;1.10;80.30;;;0.35;76.92;97486.56;5072090;28;20200;-73
2020/12/27 04:16:41;;;;;;;5.50;3.90;;;1.10;80.70;;;0.44;77.01;97478.50;5071923;28;20667;-73
2020/12/27 04:19:09;;;;;;;6.93;4.20;;;1.10;81.20;;;0.42;76.97;97486.25;5070197;28;20642;-73
2020/12/27 04:22:07;;;;;;;7.50;4.13;;;1.10;81.30;;;0.45;77.53;97477.63;5057387;28;20640;-73
2020/12/27 04:24:58;;;;;;;4.43;3.30;;;1.00;81.40;;;0.45;77.30;97457.94;5059991;28;20643;-74
2020/12/27 04:27:25;;;;;;;6.17;4.00;;;1.10;81.50;;;0.46;76.73;97472.44;5071117;28;20615;-73
2020/12/27 04:29:54;;;;;;;5.67;3.63;;;1.10;81.40;;;0.46;77.12;97473.25;5054809;28;20632;-73
2020/12/27 04:32:33;;;;;;;5.50;3.40;;;1.10;81.30;;;0.58;76.58;97469.38;5087496;28;20663;-73
2020/12/27 04:35:10;;;;;;;5.70;4.00;;;1.20;81.50;;;0.64;76.49;97448.63;5067651;28;21222;-73
2020/12/27 04:37:40;;;;;;;6.63;3.70;;;1.30;81.00;;;0.69;76.78;97455.25;5070458;28;20655;-73
2020/12/27 04:40:15;;;;;;;5.60;4.10;;;1.30;81.20;;;0.65;75.78;97450.31;5071494;28;20765;-73
2020/12/27 04:42:49;;;;;;;7.40;4.07;;;1.30;79.80;;;0.71;76.39;97443.19;5086524;28;20211;-73
2020/12/27 04:45:29;;;;;;;5.40;3.63;;;1.30;80.60;;;0.80;76.13;97439.41;5085346;28;20654;-73
2020/12/27 04:48:32;;;;;;;6.73;3.70;;;1.40;80.70;;;0.78;75.99;97431.75;5052643;28;21171;-73
2020/12/27 04:51:06;;;;;;;7.37;3.63;;;1.40;80.20;;;0.81;75.89;97429.06;5072482;28;20616;-72
2020/12/27 04:53:38;;;;;;;6.60;4.00;;;1.40;79.90;;;0.84;75.07;97425.56;5067824;28;20688;-73
2020/12/27 04:56:09;;;;;;;4.73;4.00;;;1.40;79.60;;;0.85;75.34;97417.81;5070306;28;21038;-73
2020/12/27 04:58:54;;;;;;;7.00;4.10;;;1.50;79.00;;;0.90;74.99;97409.91;5054754;28;21090;-73
2020/12/27 05:01:25;;;;;;;4.33;3.53;;;1.50;79.30;;;0.84;75.17;97402.47;5057735;28;20630;-73
2020/12/27 05:04:17;;;;;;;7.03;4.50;;;1.50;79.30;;;0.87;74.95;97389.53;5057515;28;20643;-73
2020/12/27 05:06:56;;;;;;;6.80;4.00;;;1.50;79.00;;;0.87;74.91;97397.22;5052743;28;20652;-73
2020/12/27 05:09:35;;;;;;;5.97;4.00;;;1.50;78.90;;;0.85;74.08;97396.47;5054049;28;20623;-73
2020/12/27 05:12:02;;;;;;;8.23;4.23;;;1.50;78.50;;;0.85;74.41;97387.00;5053858;28;20623;-73
2020/12/27 05:14:31;;;;;;;6.97;4.63;;;1.50;78.20;;;0.89;74.62;97388.56;5042857;28;20635;-73
2020/12/27 05:17:01;;;;;;;6.20;4.30;;;1.50;78.50;;;0.88;74.89;97376.63;5036372;28;20655;-73
2020/12/27 05:19:44;;;;;;;8.80;4.37;;;1.60;78.70;;;0.86;74.35;97368.16;5071332;28;20620;-73
2020/12/27 05:22:12;;;;;;;7.00;4.70;;;1.50;78.00;;;0.83;74.07;97358.03;5054170;28;20943;-73
2020/12/27 05:24:53;;;;;;;6.60;4.63;;;1.50;78.00;;;0.84;74.00;97358.84;5069495;28;20643;-74
2020/12/27 05:28:01;;;;;;;5.90;4.33;;;1.50;78.00;;;0.83;73.89;97350.34;5027721;28;20660;-73
2020/12/27 05:30:43;;;;;;;8.10;4.60;;;1.50;77.90;;;0.86;74.29;97349.34;5037361;28;20722;-73
2020/12/27 05:33:37;;;;;;;7.50;5.07;;;1.50;77.90;;;0.81;74.41;97339.28;5071936;28;20619;-72
2020/12/27 05:36:32;;;;;;;7.00;4.90;;;1.50;77.70;;;0.83;74.52;97334.94;5021596;28;20991;-73
2020/12/27 05:39:18;;;;;;;7.07;4.77;;;1.50;78.10;;;0.86;74.78;97331.41;5072075;28;20790;-72
2020/12/27 05:42:01;;;;;;;7.73;4.50;;;1.50;78.20;;;0.90;74.52;97323.50;5042569;28;20624;-73
2020/12/27 05:44:29;;;;;;;6.17;4.37;;;1.50;78.20;;;0.89;74.49;97319.28;5077252;28;20656;-73
2020/12/27 05:46:59;;;;;;;9.70;4.80;;;1.50;77.90;;;0.90;74.40;97312.41;5070147;28;20625;-73
2020/12/27 05:49:32;;;;;;;6.57;4.53;;;1.50;77.10;;;0.87;73.94;97297.97;5078560;28;21185;-73
2020/12/27 05:52:15;;;;;;;9.20;5.70;;;1.50;77.40;;;0.84;73.72;97287.84;5071213;28;20722;-73
2020/12/27 05:55:04;;;;;;;7.53;5.00;;;1.50;77.50;;;0.85;74.15;97275.88;5063095;28;20624;-74
2020/12/27 05:57:41;;;;;;;7.73;5.10;;;1.50;77.90;;;0.84;74.70;97269.88;5056873;28;20767;-73
2020/12/27 06:00:11;;;;;;;8.30;4.87;;;1.50;77.90;;;0.85;74.10;97274.13;5053956;28;20623;-73
2020/12/27 06:02:58;;;;;;;7.63;5.50;;;1.50;77.90;;;0.91;74.07;97279.00;5057985;28;20635;-75
2020/12/27 06:06:08;;;;;;;6.00;4.80;;;1.50;77.90;;;0.90;74.13;97261.94;5067154;28;20631;-73
2020/12/27 06:09:09;;;;;;;7.07;4.70;;;1.50;77.70;;;0.89;74.07;97259.44;4973518;28;20619;-73
2020/12/27 06:11:55;;;;;;;7.80;5.43;;;1.50;77.70;;;0.91;74.63;97237.94;5053649;28;20635;-73
2020/12/27 06:14:43;;;;;;;7.20;4.87;;;1.50;78.00;;;0.92;74.27;97226.78;5069473;28;20643;-75
2020/12/27 06:17:48;;;;;;;7.10;5.20;;;1.50;78.00;;;0.96;73.66;97207.78;5068803;28;20656;-74
2020/12/27 06:20:44;;;;;;;8.00;5.27;;;1.60;78.00;;;0.89;73.73;97206.41;5029691;28;21003;-72
2020/12/27 06:23:14;;;;;;;8.30;5.37;;;1.50;77.60;;;0.93;73.82;97195.06;5053902;28;20631;-74
2020/12/27 06:25:47;;;;;;;7.97;5.30;;;1.60;77.80;;;0.96;74.25;97192.38;5052580;28;20654;-73
2020/12/27 06:28:15;;;;;;;8.13;5.20;;;1.60;78.00;;;0.98;73.94;97183.72;5080562;28;21047;-74
2020/12/27 06:31:08;;;;;;;7.33;5.10;;;1.60;77.30;;;1.01;73.55;97182.75;5051319;28;20636;-74
2020/12/27 06:33:51;;;;;;;7.70;5.47;;;1.60;78.40;;;1.04;73.79;97170.59;5053352;28;20626;-74
2020/12/27 06:36:41;;;;;;;7.40;4.87;;;1.70;77.60;;;1.05;74.13;97169.72;5073005;28;20647;-73
2020/12/27 06:39:26;;;;;;;7.67;5.50;;;1.70;78.30;;;1.02;74.13;97171.56;5074368;28;20611;-73
2020/12/27 06:42:08;;;;;;;8.77;5.40;;;1.60;78.10;;;1.03;73.89;97168.13;5071830;28;20619;-74
2020/12/27 06:44:47;;;;;;;7.33;5.20;;;1.60;77.30;;;0.93;74.25;97157.44;5074189;28;21119;-74
2020/12/27 06:47:48;;;;;;;7.47;5.73;;;1.60;77.60;;;0.94;74.40;97160.84;5077220;28;20615;-74
2020/12/27 06:50:24;;;;;;;10.00;6.27;;;1.50;77.70;;;0.94;73.30;97153.97;5074260;28;20646;-74
2020/12/27 06:53:02;;;;;;;9.23;6.20;;;1.60;76.60;;;0.97;73.97;97145.31;5050999;28;20628;-74
2020/12/27 06:55:54;;;;;;;10.33;6.33;;;1.60;76.90;;;0.96;73.28;97143.63;5073301;28;20627;-73
2020/12/27 06:58:29;;;;;;;8.10;6.07;;;1.60;76.90;;;0.95;73.65;97152.25;5056184;28;20975;-74
2020/12/27 07:01:26;;;;;;;9.60;6.43;;;1.60;76.70;;;1.04;72.80;97144.13;5056738;28;20673;-74
2020/12/27 07:04:12;;;;;;;8.17;5.90;;;1.60;76.80;;;1.05;73.13;97143.19;5028736;28;20671;-73
2020/12/27 07:06:42;;;;;;;10.73;6.20;;;1.70;76.60;;;1.08;73.46;97132.78;5080268;28;20639;-74
2020/12/27 07:09:19;;;;;;;7.67;5.83;;;1.70;76.70;;;1.08;73.10;97122.53;5073175;28;21224;-75
2020/12/27 07:12:02;;;;;;;10.07;6.20;;;1.70;76.10;;;1.06;74.03;97114.09;5073137;28;20733;-70
2020/12/27 07:14:29;;;;;;;8.70;5.60;;;1.70;77.00;;;0.99;73.77;97110.13;5053197;28;21085;-73
2020/12/27 07:16:57;;;;;;;9.53;5.97;;;1.60;76.70;;;0.89;74.20;97101.22;5072858;28;20659;-73
2020/12/27 07:19:26;;;;;;;7.17;5.60;;;1.50;77.60;;;0.89;74.55;97096.09;5071644;28;20730;-74
2020/12/27 07:21:56;;;;;;;8.03;5.63;;;1.50;77.80;;;1.02;73.82;97094.59;5073429;28;21076;-73
2020/12/27 07:24:27;;;;;;;8.10;5.37;;;1.60;77.50;;;1.02;73.67;97081.75;5089322;28;21117;-73
2020/12/27 07:26:56;;;;;;;9.10;6.10;;;1.60;77.10;;;1.06;72.90;97075.59;5055922;28;20681;-72
2020/12/27 07:29:25;;;;;;;8.47;6.30;;;1.70;76.90;;;1.12;72.62;97068.41;5072733;28;20603;-72
2020/12/27 07:31:53;;;;;;;17.17;9.63;;;1.70;75.80;;;1.13;72.70;97070.09;5071614;28;20631;-72
2020/12/27 07:34:28;;;;;;;13.67;7.87;;;1.70;76.70;;;1.11;73.20;97063.34;5074542;28;21242;-69
2020/12/27 07:37:01;;;;;;;8.93;6.40;;;1.70;76.10;;;1.04;72.71;97054.31;5064070;28;20655;-74
2020/12/27 07:39:52;;;;;;;12.07;7.85;;;1.70;75.90;;;1.06;72.74;97037.91;5073943;28;20627;-72
2020/12/27 07:42:23;;;;;;;10.80;6.40;;;1.70;76.10;;;1.06;73.27;97034.53;5074213;28;20246;-74
2020/12/27 07:44:51;;;;;;;10.20;6.10;;;1.70;76.60;;;1.10;73.11;97026.59;5070840;28;20631;-73
2020/12/27 07:47:19;;;;;;;10.07;6.43;;;1.70;76.10;;;1.18;73.18;97027.06;5073101;28;20702;-73
2020/12/27 07:50:18;;;;;;;8.67;5.47;;;1.80;76.40;;;1.27;73.46;97028.34;5054350;28;21216;-72
2020/12/27 07:52:55;;;;;;;7.47;5.70;;;1.80;76.10;;;1.35;73.54;97031.38;5011641;28;20650;-72
2020/12/27 07:55:26;;;;;;;7.50;5.67;;;1.90;76.80;;;1.40;73.07;97020.78;5063643;28;20697;-72
2020/12/27 07:57:57;;;;;;;9.00;5.40;;;2.00;76.60;;;1.48;72.67;97021.22;5074094;28;20758;-75
2020/12/27 08:00:27;;;;;;;7.00;5.53;;;2.10;76.60;;;1.57;72.32;97013.06;5053850;28;20631;-72
2020/12/27 08:02:54;;;;;;;7.60;5.60;;;2.10;76.20;;;1.63;72.66;97010.19;5054709;28;20663;-75
2020/12/27 08:05:22;;;;;;;9.27;5.70;;;2.20;75.80;;;1.68;71.74;97003.06;5069787;28;20643;-72
2020/12/27 08:07:53;;;;;;;9.37;5.93;;;2.20;75.20;;;1.71;71.22;97000.34;5073796;28;20666;-73
2020/12/27 08:10:24;;;;;;;11.20;6.37;;;2.30;74.10;;;1.79;71.11;97003.38;5073711;28;20665;-73
2020/12/27 08:12:55;;;;;;;9.13;5.50;;;2.30;74.20;;;1.79;70.65;96999.94;5073702;28;20655;-72
2020/12/27 08:15:24;;;;;;;8.73;5.30;;;2.30;73.60;;;1.83;70.78;97002.28;5077972;28;20620;-72
2020/12/27 08:17:58;;;;;;;8.77;5.63;;;2.40;73.70;;;1.90;71.50;96989.03;5055773;28;21488;-73
2020/12/27 08:20:31;;;;;;;9.97;5.83;;;2.40;74.60;;;1.93;70.69;96988.88;5055141;28;20710;-72
2020/12/27 08:23:05;;;;;;;8.80;5.10;;;2.50;73.80;;;1.94;71.01;96974.31;5078608;28;20631;-71
2020/12/27 08:25:35;;;;;;;10.93;6.10;;;2.50;73.90;;;1.95;71.57;96969.06;5093558;28;20663;-72
2020/12/27 08:28:06;;;;;;;6.50;5.00;;;2.50;74.20;;;1.91;71.21;96965.00;5077620;28;21233;-72
2020/12/27 08:30:35;;;;;;;5.57;4.47;;;2.50;73.90;;;1.92;71.19;96961.53;5078524;28;21006;-71
2020/12/27 08:33:12;;;;;;;7.00;4.90;;;2.50;73.40;;;1.99;70.68;96954.31;5082184;28;21200;-74
2020/12/27 08:35:42;;;;;;;8.63;5.63;;;2.50;73.80;;;2.06;70.86;96947.91;5071017;28;21042;-72
2020/12/27 08:38:35;;;;;;;7.43;5.43;;;2.60;73.40;;;2.10;70.95;96936.56;5085942;28;20702;-72
2020/12/27 08:41:10;;;;;;;5.50;5.00;;;2.60;74.00;;;2.11;70.76;96926.22;5072823;28;20642;-70
2020/12/27 08:44:22;;;;;;;9.00;5.67;;;2.60;73.50;;;2.05;69.91;96926.53;5072097;28;20721;-68
2020/12/27 08:46:52;;;;;;;7.10;4.87;;;2.60;72.90;;;2.13;69.89;96928.69;5042793;28;20735;-68
2020/12/27 08:49:32;;;;;;;6.67;4.97;;;2.60;72.50;;;2.20;70.79;96930.84;5090840;28;20979;-68
2020/12/27 08:52:05;;;;;;;8.00;5.10;;;2.70;73.80;;;2.22;70.27;96926.44;5059003;28;21217;-68
2020/12/27 08:54:34;;;;;;;13.10;8.23;;;2.70;72.80;;;2.26;70.70;96935.66;5073174;28;20727;-68
2020/12/27 08:57:04;;;;;;;9.10;5.90;;;2.80;73.20;;;2.29;70.40;96932.94;5072031;28;21533;-68
2020/12/27 08:59:33;;;;;;;9.73;5.63;;;2.80;73.00;;;2.35;70.34;96930.84;5078158;28;20733;-68
2020/12/27 09:02:09;;;;;;;8.10;5.23;;;2.90;72.90;;;2.43;70.03;96910.66;5092802;28;20664;-68
2020/12/27 09:04:37;;;;;;;7.47;5.17;;;2.90;72.50;;;2.49;70.02;96907.75;5075065;28;20716;-70
2020/12/27 09:07:06;;;;;;;8.43;5.63;;;3.00;72.30;;;2.53;70.07;96909.25;5079345;28;20618;-71
2020/12/27 09:09:33;;;;;;;7.20;4.90;;;3.10;72.20;;;2.51;69.16;96894.81;5073934;28;21162;-68
2020/12/27 09:12:09;;;;;;;7.00;4.83;;;3.00;71.30;;;2.42;69.28;96892.75;5072930;28;20627;-67
2020/12/27 09:14:38;;;;;;;7.27;5.73;;;3.00;70.90;;;2.43;69.55;96887.50;5073613;28;21248;-67
2020/12/27 09:17:08;;;;;;;6.57;5.03;;;3.00;71.10;;;2.43;69.32;96878.97;5070438;28;20687;-71
2020/12/27 09:19:36;;;;;;;6.53;4.73;;;3.00;71.20;;;2.40;69.28;96874.81;5069148;28;20628;-71
2020/12/27 09:22:06;;;;;;;9.20;5.40;;;2.90;71.10;;;2.40;68.98;96861.97;5065084;28;21237;-68
2020/12/27 09:24:34;;;;;;;6.60;5.20;;;2.90;71.50;;;2.34;69.05;96851.22;5075666;28;20723;-69
2020/12/27 09:27:09;;;;;;;7.90;5.37;;;2.90;70.80;;;2.30;69.45;96854.88;5068525;28;20632;-71
2020/12/27 09:29:39;;;;;;;7.63;5.07;;;2.90;71.60;;;2.33;69.75;96842.69;5045725;28;20723;-71
2020/12/27 09:32:11;;;;;;;6.97;4.70;;;2.90;71.30;;;2.43;69.54;96848.13;5067800;28;21230;-71
2020/12/27 09:34:42;;;;;;;6.03;5.00;;;3.00;72.00;;;2.47;69.11;96841.91;5071703;28;20632;-71
2020/12/27 09:37:14;;;;;;;6.90;5.27;;;3.00;71.20;;;2.52;68.80;96830.41;5057883;28;20755;-72
2020/12/27 09:39:43;;;;;;;6.50;5.20;;;3.00;70.60;;;2.54;68.73;96813.16;5060203;28;20619;-71
2020/12/27 09:42:24;;;;;;;7.77;5.03;;;3.10;70.50;;;2.53;68.64;96806.34;5073999;28;20696;-72
2020/12/27 09:44:53;;;;;;;6.07;5.00;;;3.10;70.60;;;2.53;68.56;96808.94;5057274;28;20603;-70
2020/12/27 09:47:30;;;;;;;8.63;5.30;;;3.10;70.50;;;2.58;68.85;96793.22;5073485;28;20867;-70
2020/12/27 09:50:05;;;;;;;6.23;5.10;;;3.10;71.20;;;2.58;69.03;96777.78;5055008;28;20603;-70
2020/12/27 09:52:45;;;;;;;8.33;5.43;;;3.10;70.90;;;2.62;69.33;96780.09;5085397;28;21252;-70
2020/12/27 09:55:23;;;;;;;10.30;5.40;;;3.10;71.50;;;2.70;68.75;96772.75;5062752;28;20618;-71
2020/12/27 09:57:58;;;;;;;6.40;5.00;;;3.20;70.90;;;2.78;68.66;96756.84;5079834;28;20673;-72
2020/12/27 10:00:28;;;;;;;6.70;5.23;;;3.30;71.00;;;2.81;68.46;96752.34;5064504;28;20624;-69
2020/12/27 10:02:57;;;;;;;7.10;5.57;;;3.30;70.80;;;2.88;68.46;96745.94;5060060;28;20667;-69
2020/12/27 10:05:26;;;;;;;7.20;5.30;;;3.40;70.60;;;2.97;68.73;96735.09;5072463;28;20614;-69
2020/12/27 10:07:54;;;;;;;8.90;5.60;;;3.50;70.80;;;3.05;68.62;96735.44;5071967;28;21196;-71
2020/12/27 10:10:22;;;;;;;5.63;4.67;;;3.50;70.30;;;3.11;67.43;96717.03;5082193;28;20210;-71
2020/12/27 10:12:52;;;;;;;6.73;4.90;;;3.60;69.80;;;3.17;68.04;96716.66;5064270;28;21205;-71
2020/12/27 10:15:22;;;;;;;5.77;5.17;;;3.60;69.70;;;3.20;67.81;96722.44;5082266;28;20645;-69
2020/12/27 10:17:51;;;;;;;9.57;5.83;;;3.70;69.60;;;3.13;67.42;96705.75;5076893;28;20639;-70
2020/12/27 10:20:18;;;;;;;7.50;5.50;;;3.70;69.10;;;3.13;68.46;96699.75;5069071;28;20663;-70
2020/12/27 10:22:47;;;;;;;8.00;5.63;;;3.60;69.40;;;3.13;68.49;96685.13;5073234;28;20666;-70
2020/12/27 10:25:15;;;;;;;7.10;5.23;;;3.60;70.00;;;3.13;67.94;96684.28;5038800;28;20623;-70
2020/12/27 10:27:43;;;;;;;8.30;5.40;;;3.70;70.00;;;3.07;68.71;96664.91;5076912;28;20639;-69
2020/12/27 10:30:11;;;;;;;6.53;4.93;;;3.60;70.50;;;3.05;68.17;96651.31;5055606;28;20632;-69
2020/12/27 10:32:38;;;;;;;8.77;6.17;;;3.60;70.80;;;2.93;68.69;96636.63;5075387;28;20623;-71
2020/12/27 10:35:07;;;;;;;7.07;5.67;;;3.50;70.00;;;2.95;68.59;96621.09;5075157;28;21092;-71
2020/12/27 10:37:34;;;;;;;7.63;5.40;;;3.50;70.30;;;2.98;68.52;96620.91;5056491;28;20687;-71
2020/12/27 10:40:02;;;;;;;8.77;5.70;;;3.50;70.10;;;2.91;68.85;96601.59;5070336;28;20743;-69
2020/12/27 10:42:29;;;;;;;8.87;5.00;;;3.40;70.40;;;2.88;68.29;96589.75;5074483;28;20640;-73
2020/12/27 10:44:57;;;;;;;7.33;5.17;;;3.40;70.10;;;2.94;68.93;96578.25;5075104;28;20958;-70
2020/12/27 10:47:24;;;;;;;7.67;4.67;;;3.50;70.80;;;2.89;68.14;96575.97;5074730;28;20714;-70
2020/12/27 10:49:52;;;;;;;6.70;5.00;;;3.50;70.30;;;2.90;68.45;96551.03;5074732;28;20731;-70
2020/12/27 10:52:20;;;;;;;7.33;5.00;;;3.50;70.20;;;2.91;69.29;96544.97;5074666;28;20663;-70
2020/12/27 10:54:48;;;;;;;8.00;4.97;;;3.50;70.50;;;2.90;69.04;96544.16;5074163;28;20631;-70
2020/12/27 10:57:15;;;;;;;6.20;5.30;;;3.40;70.50;;;2.95;69.11;96533.59;5069839;28;20651;-70
2020/12/27 10:59:44;;;;;;;8.90;5.80;;;3.40;70.70;;;2.96;69.58;96530.06;5072285;28;20712;-70
2020/12/27 11:02:11;;;;;;;8.50;5.33;;;3.50;71.10;;;2.96;69.81;96528.34;5065177;28;21186;-70